createdAt,value
2023-01-10T00:01:49.237Z,28.23
2023-01-10T00:04:15.660Z,27.75
2023-01-10T00:06:42.091Z,27.08
2023-01-10T00:09:10.133Z,29.70
2023-01-10T00:11:55.121Z,24.15
2023-01-10T00:14:21.476Z,23.50
2023-01-10T00:16:47.845Z,24.63
2023-01-10T00:19:14.258Z,25.30
2023-01-10T00:21:40.670Z,28.23
2023-01-10T00:24:19.337Z,22.83
2023-01-10T00:26:53.638Z,18.45
2023-01-10T00:29:22.406Z,19.33
2023-01-10T00:31:48.830Z,19.75
2023-01-10T00:34:15.556Z,19.73
2023-01-10T00:36:42.250Z,21.02
2023-01-10T00:39:12.366Z,20.77
2023-01-10T00:41:57.825Z,19.52
2023-01-10T00:44:24.193Z,18.63
2023-01-10T00:46:50.611Z,18.48
2023-01-10T00:49:16.989Z,16.98
2023-01-10T00:51:43.681Z,22.55
2023-01-10T00:54:10.829Z,16.92
2023-01-10T00:56:37.483Z,15.00
2023-01-10T00:59:04.512Z,14.55
2023-01-10T01:01:31.241Z,15.52
2023-01-10T01:03:59.358Z,13.35
2023-01-10T01:06:26.537Z,10.73
2023-01-10T01:08:52.949Z,13.15
2023-01-10T01:11:19.369Z,11.25
2023-01-10T01:13:45.777Z,11.18
2023-01-10T01:16:12.712Z,8.98
2023-01-10T01:18:39.166Z,10.48
2023-01-10T01:21:05.821Z,10.52
2023-01-10T01:23:33.590Z,10.13
2023-01-10T01:26:00.312Z,8.50
2023-01-10T01:28:26.712Z,11.23
2023-01-10T01:30:53.142Z,9.63
2023-01-10T01:33:20.413Z,5.40
2023-01-10T01:35:48.476Z,9.35
2023-01-10T01:38:14.902Z,9.27
2023-01-10T01:40:41.687Z,8.70
2023-01-10T01:43:28.333Z,7.40
2023-01-10T01:45:55.581Z,8.07
2023-01-10T01:48:30.807Z,9.13
2023-01-10T01:51:10.627Z,10.13
2023-01-10T01:53:36.905Z,7.13
2023-01-10T01:56:08.364Z,11.55
2023-01-10T01:58:47.961Z,7.95
2023-01-10T02:01:15.304Z,13.15
2023-01-10T02:03:43.150Z,10.35
2023-01-10T02:06:09.810Z,7.57
2023-01-10T02:08:38.553Z,9.70
2023-01-10T02:11:10.589Z,7.72
2023-01-10T02:13:41.569Z,9.52
2023-01-10T02:16:08.807Z,11.45
2023-01-10T02:18:36.294Z,10.00
2023-01-10T02:21:18.322Z,11.38
2023-01-10T02:23:52.781Z,13.00
2023-01-10T02:26:28.621Z,10.70
2023-01-10T02:29:21.792Z,11.48
2023-01-10T02:32:06.742Z,12.88
2023-01-10T02:35:10.944Z,15.15
2023-01-10T02:38:10.414Z,14.98
2023-01-10T02:40:43.930Z,15.05
2023-01-10T02:43:14.734Z,20.13
2023-01-10T02:45:47.379Z,19.60
2023-01-10T02:48:13.799Z,16.73
2023-01-10T02:50:43.286Z,20.92
2023-01-10T02:53:24.107Z,19.98
2023-01-10T02:55:56.706Z,16.27
2023-01-10T02:58:33.711Z,20.05
2023-01-10T03:01:18.581Z,24.70
2023-01-10T03:04:09.980Z,23.00
2023-01-10T03:06:56.137Z,27.73
2023-01-10T03:09:34.531Z,26.17
2023-01-10T03:12:13.513Z,23.92
2023-01-10T03:14:40.900Z,26.85
2023-01-10T03:17:09.678Z,23.13
2023-01-10T03:19:42.010Z,22.33
2023-01-10T03:22:10.152Z,27.65
2023-01-10T03:24:41.855Z,26.60
2023-01-10T03:27:20.550Z,23.55
2023-01-10T03:29:52.757Z,27.63
2023-01-10T03:32:22.008Z,29.90
2023-01-10T03:34:48.506Z,27.27
2023-01-10T03:37:19.665Z,25.13
2023-01-10T03:40:00.113Z,26.92
2023-01-10T03:42:56.312Z,29.38
2023-01-10T03:45:29.926Z,23.67
2023-01-10T03:47:57.688Z,22.88
2023-01-10T03:50:25.317Z,28.40
2023-01-10T03:52:51.842Z,23.55
2023-01-10T03:55:21.596Z,23.70
2023-01-10T03:57:48.857Z,28.30
2023-01-10T04:00:16.470Z,27.77
2023-01-10T04:02:44.142Z,28.05
2023-01-10T04:05:10.819Z,28.10
2023-01-10T04:07:37.273Z,25.02
2023-01-10T04:10:05.223Z,24.75
2023-01-10T04:12:31.939Z,25.67
2023-01-10T04:14:58.325Z,24.85
2023-01-10T04:17:24.757Z,24.38
2023-01-10T04:19:51.251Z,22.85
2023-01-10T04:22:17.729Z,21.83
2023-01-10T04:24:44.284Z,30.38
2023-01-10T04:27:10.734Z,28.23
2023-01-10T04:29:37.178Z,26.52
2023-01-10T04:32:03.590Z,22.30
2023-01-10T04:34:30.008Z,23.20
2023-01-10T04:36:56.418Z,25.48
2023-01-10T04:39:22.795Z,24.48
2023-01-10T04:41:49.562Z,25.90
2023-01-10T04:44:15.965Z,25.80
2023-01-10T04:46:42.373Z,26.83
2023-01-10T04:49:10.238Z,28.17
2023-01-10T04:51:36.738Z,26.73
2023-01-10T04:54:03.180Z,22.42
2023-01-10T04:56:29.576Z,21.45
2023-01-10T04:58:56.405Z,22.98
2023-01-10T05:01:24.284Z,30.40
2023-01-10T05:03:51.927Z,26.23
2023-01-10T05:06:19.350Z,30.85
2023-01-10T05:08:45.856Z,29.10
2023-01-10T05:11:12.838Z,23.42
2023-01-10T05:13:39.670Z,18.38
2023-01-10T05:16:06.512Z,28.83
2023-01-10T05:18:33.261Z,22.52
2023-01-10T05:21:01.463Z,25.67
2023-01-10T05:23:28.697Z,25.30
2023-01-10T05:25:55.152Z,26.83
2023-01-10T05:28:21.551Z,21.48
2023-01-10T05:30:47.987Z,26.80
2023-01-10T05:33:14.387Z,27.65
2023-01-10T05:35:40.768Z,25.55
2023-01-10T05:38:07.225Z,22.33
2023-01-10T05:40:33.811Z,26.90
2023-01-10T05:43:00.307Z,26.60
2023-01-10T05:45:26.788Z,25.75
2023-01-10T05:47:53.195Z,21.83
2023-01-10T05:50:19.652Z,27.83
2023-01-10T05:52:46.031Z,25.52
2023-01-10T05:55:12.491Z,25.02
2023-01-10T05:57:38.872Z,24.63
2023-01-10T06:00:06.591Z,25.55
2023-01-10T06:02:33.428Z,22.73
2023-01-10T06:04:59.943Z,24.85
2023-01-10T06:07:26.332Z,23.50
2023-01-10T06:09:52.764Z,26.25
2023-01-10T06:12:19.237Z,28.88
2023-01-10T06:14:46.157Z,22.33
2023-01-10T06:17:12.764Z,24.55
2023-01-10T06:19:39.235Z,28.15
2023-01-10T06:22:05.802Z,22.27
2023-01-10T06:24:32.237Z,26.65
2023-01-10T06:26:58.709Z,23.15
2023-01-10T06:29:25.140Z,22.73
2023-01-10T06:31:51.575Z,24.90
2023-01-10T06:34:18.030Z,24.73
2023-01-10T06:36:44.459Z,25.42
2023-01-10T06:39:10.957Z,25.30
2023-01-10T06:41:37.422Z,23.65
2023-01-10T06:44:04.078Z,27.98
2023-01-10T06:46:30.505Z,22.48
2023-01-10T06:48:56.942Z,28.00
2023-01-10T06:51:23.322Z,27.23
2023-01-10T06:53:49.729Z,27.05
2023-01-10T06:56:16.138Z,27.58
2023-01-10T06:58:42.589Z,32.30
2023-01-10T07:01:16.801Z,26.10
2023-01-10T07:03:43.301Z,30.42
2023-01-10T07:06:10.203Z,32.60
2023-01-10T07:08:38.137Z,29.08
2023-01-10T07:11:04.693Z,34.83
2023-01-10T07:13:31.164Z,26.90
2023-01-10T07:16:08.739Z,31.40
2023-01-10T07:18:36.177Z,33.17
2023-01-10T07:21:02.675Z,33.20
2023-01-10T07:23:31.058Z,35.35
2023-01-10T07:25:58.735Z,33.13
2023-01-10T07:28:25.189Z,31.70
2023-01-10T07:30:51.632Z,29.48
2023-01-10T07:33:17.991Z,34.65
2023-01-10T07:35:44.711Z,37.25
2023-01-10T07:38:11.146Z,42.33
2023-01-10T07:40:37.554Z,37.13
2023-01-10T07:43:04.062Z,34.58
2023-01-10T07:45:30.526Z,38.13
2023-01-10T07:47:58.380Z,40.90
2023-01-10T07:50:24.975Z,36.38
2023-01-10T07:52:51.383Z,41.22
2023-01-10T07:55:18.028Z,43.30
2023-01-10T07:57:44.562Z,39.90
2023-01-10T08:00:11.492Z,39.53
2023-01-10T08:02:38.094Z,39.63
2023-01-10T08:05:04.822Z,43.67
2023-01-10T08:07:32.157Z,46.58
2023-01-10T08:09:58.950Z,41.40
2023-01-10T08:12:25.432Z,43.90
2023-01-10T08:14:52.567Z,44.42
2023-01-10T08:17:19.566Z,44.90
2023-01-10T08:19:45.975Z,45.85
2023-01-10T08:22:12.840Z,47.20
2023-01-10T08:24:39.397Z,36.88
2023-01-10T08:27:05.841Z,44.15
2023-01-10T08:29:32.249Z,45.45
2023-01-10T08:31:58.678Z,46.28
2023-01-10T08:34:25.466Z,42.75
2023-01-10T08:36:52.969Z,38.55
2023-01-10T08:39:22.242Z,42.03
2023-01-10T08:41:49.368Z,39.70
2023-01-10T08:44:15.806Z,39.58
2023-01-10T08:46:42.834Z,40.10
2023-01-10T08:49:09.428Z,40.63
2023-01-10T08:51:36.160Z,37.58
2023-01-10T08:54:02.659Z,46.70
2023-01-10T08:56:29.117Z,36.45
2023-01-10T08:58:55.515Z,38.90
2023-01-10T09:01:22.061Z,44.22
2023-01-10T09:03:48.528Z,36.95
2023-01-10T09:06:14.955Z,36.75
2023-01-10T09:08:41.352Z,39.25
2023-01-10T09:11:07.872Z,38.88
2023-01-10T09:13:34.315Z,35.67
2023-01-10T09:16:00.955Z,35.10
2023-01-10T09:18:27.455Z,33.85
2023-01-10T09:20:54.265Z,40.30
2023-01-10T09:23:22.235Z,36.67
2023-01-10T09:25:53.480Z,33.10
2023-01-10T09:28:21.075Z,34.95
2023-01-10T09:30:48.159Z,40.05
2023-01-10T09:33:15.819Z,33.78
2023-01-10T09:35:42.680Z,36.90
2023-01-10T09:38:16.027Z,38.95
2023-01-10T09:41:03.905Z,38.17
2023-01-10T09:43:52.154Z,40.42
2023-01-10T09:46:29.228Z,42.80
2023-01-10T09:49:01.925Z,40.15
2023-01-10T09:51:43.508Z,47.83
2023-01-10T09:54:15.871Z,44.03
2023-01-10T09:56:42.813Z,41.20
2023-01-10T09:59:15.847Z,43.80
2023-01-10T10:01:42.315Z,42.65
2023-01-10T10:04:14.339Z,46.78
2023-01-10T10:06:40.918Z,45.67
2023-01-10T10:09:11.659Z,42.63
2023-01-10T10:11:55.967Z,41.55
2023-01-10T10:14:42.401Z,43.67
2023-01-10T10:17:20.664Z,39.33
2023-01-10T10:19:49.981Z,47.85
2023-01-10T10:22:54.023Z,35.20
2023-01-10T10:25:42.071Z,35.92
2023-01-10T10:28:37.339Z,38.42
2023-01-10T10:31:15.795Z,36.17
2023-01-10T10:33:50.749Z,42.20
2023-01-10T10:36:33.851Z,44.70
2023-01-10T10:39:01.201Z,43.38
2023-01-10T10:41:41.303Z,44.20
2023-01-10T10:44:41.744Z,46.58
2023-01-10T10:47:15.274Z,44.67
2023-01-10T10:49:43.916Z,43.25
2023-01-10T10:52:36.857Z,42.78
2023-01-10T10:57:32.507Z,37.47
2023-01-10T11:00:00.427Z,33.80
2023-01-10T11:02:29.599Z,38.72
2023-01-10T11:05:05.358Z,31.50
2023-01-10T11:07:37.216Z,34.35
2023-01-10T11:10:21.766Z,32.38
2023-01-10T11:12:51.062Z,37.83
2023-01-10T11:15:35.818Z,41.75
2023-01-10T11:18:16.678Z,39.95
2023-01-10T11:21:02.753Z,39.28
2023-01-10T11:23:42.276Z,40.00
2023-01-10T11:26:21.372Z,35.13
2023-01-10T11:28:47.885Z,46.33
2023-01-10T11:31:14.643Z,38.20
2023-01-10T11:33:41.251Z,37.72
2023-01-10T11:36:10.061Z,43.47
2023-01-10T11:38:36.606Z,38.60
2023-01-10T11:41:23.624Z,41.70
2023-01-10T11:43:50.110Z,38.67
2023-01-10T11:46:22.587Z,40.22
2023-01-10T11:51:39.773Z,37.58
2023-01-10T11:54:23.736Z,36.72
2023-01-10T11:56:59.192Z,37.95
2023-01-10T11:59:26.448Z,36.65
2023-01-10T12:01:55.218Z,42.53
2023-01-10T12:04:22.304Z,37.53
2023-01-10T12:06:51.260Z,34.50
2023-01-10T12:09:33.200Z,29.42
2023-01-10T12:12:14.491Z,37.58
2023-01-10T12:14:41.069Z,28.48
2023-01-10T12:17:12.419Z,42.20
2023-01-10T12:19:38.887Z,30.33
2023-01-10T12:22:07.519Z,31.73
2023-01-10T12:24:35.927Z,38.03
2023-01-10T12:27:03.553Z,26.75
2023-01-10T12:29:35.165Z,36.78
2023-01-10T12:32:03.743Z,28.37
2023-01-10T12:34:58.432Z,34.90
2023-01-10T12:37:37.715Z,28.45
2023-01-10T12:40:18.188Z,31.98
2023-01-10T12:43:08.752Z,23.33
2023-01-10T12:45:46.960Z,32.47
2023-01-10T12:48:19.917Z,30.13
2023-01-10T12:50:53.848Z,32.67
2023-01-10T12:53:43.450Z,23.80
2023-01-10T12:56:13.668Z,26.02
2023-01-10T12:58:47.069Z,28.35
2023-01-10T13:01:31.550Z,22.33
2023-01-10T13:04:03.230Z,22.20
2023-01-10T13:06:34.612Z,21.50
2023-01-10T13:09:07.519Z,21.35
2023-01-10T13:11:40.902Z,23.23
2023-01-10T13:14:10.612Z,23.52
2023-01-10T13:16:47.697Z,22.10
2023-01-10T13:19:14.820Z,19.60
2023-01-10T13:21:42.252Z,22.80
2023-01-10T13:24:24.178Z,26.77
2023-01-10T13:26:57.435Z,27.83
2023-01-10T13:29:26.391Z,26.45
2023-01-10T13:31:57.547Z,27.65
2023-01-10T13:34:27.152Z,27.92
2023-01-10T13:37:02.257Z,24.25
2023-01-10T13:39:32.485Z,29.90
2023-01-10T13:42:17.758Z,20.55
2023-01-10T13:45:02.412Z,28.83
2023-01-10T13:47:59.011Z,22.15
2023-01-10T13:50:25.605Z,28.23
2023-01-10T13:53:12.933Z,20.33
2023-01-10T13:55:39.327Z,29.95
2023-01-10T13:58:11.885Z,27.95
2023-01-10T14:03:56.071Z,27.58
2023-01-10T14:06:28.646Z,25.90
2023-01-10T14:08:58.196Z,23.23
2023-01-10T14:11:47.964Z,22.85
2023-01-10T14:14:23.325Z,27.33
2023-01-10T14:16:52.493Z,32.33
2023-01-10T14:19:31.188Z,24.77
2023-01-10T14:22:00.041Z,28.27
2023-01-10T14:24:28.742Z,20.88
2023-01-10T14:26:58.576Z,20.05
2023-01-10T14:29:25.669Z,18.77
2023-01-10T14:31:52.975Z,24.48
2023-01-10T14:34:25.716Z,17.10
2023-01-10T14:36:55.443Z,16.77
2023-01-10T14:39:22.162Z,23.40
2023-01-10T14:41:59.576Z,21.33
2023-01-10T14:44:46.138Z,21.55
2023-01-10T14:47:34.478Z,24.30
2023-01-10T14:50:05.809Z,24.27
2023-01-10T14:52:32.840Z,27.65
2023-01-10T14:55:12.474Z,21.30
2023-01-10T14:57:38.925Z,19.02
2023-01-10T15:00:09.319Z,15.85
2023-01-10T15:02:37.860Z,20.02
2023-01-10T15:05:21.939Z,21.63
2023-01-10T15:07:48.340Z,18.77
2023-01-10T15:10:36.997Z,17.10
2023-01-10T15:13:05.461Z,22.17
2023-01-10T15:15:37.472Z,21.85
2023-01-10T15:18:27.394Z,18.95
2023-01-10T15:20:54.088Z,18.75
2023-01-10T15:23:20.882Z,21.13
2023-01-10T15:25:55.867Z,23.70
2023-01-10T15:28:22.353Z,19.60
2023-01-10T15:30:48.792Z,21.58
2023-01-10T15:33:19.666Z,20.25
2023-01-10T15:35:46.161Z,17.45
2023-01-10T15:38:20.917Z,17.63
2023-01-10T15:40:57.437Z,21.02
2023-01-10T15:43:26.432Z,16.20
2023-01-10T15:45:55.860Z,22.40
2023-01-10T15:48:33.729Z,19.88
2023-01-10T15:51:26.524Z,17.98
2023-01-10T15:53:57.424Z,15.88
2023-01-10T15:56:37.670Z,17.85
2023-01-10T15:59:05.380Z,16.42
2023-01-10T16:01:33.800Z,21.10
2023-01-10T16:04:04.981Z,18.20
2023-01-10T16:06:36.377Z,16.08
2023-01-10T16:09:07.747Z,11.20
2023-01-10T16:12:05.343Z,18.85
2023-01-10T16:14:33.468Z,21.40
2023-01-10T16:17:00.605Z,18.60
2023-01-10T16:19:27.086Z,13.70
2023-01-10T16:21:57.898Z,21.02
2023-01-10T16:24:27.463Z,15.57
2023-01-10T16:26:55.408Z,14.05
2023-01-10T16:29:22.777Z,17.27
2023-01-10T16:31:49.721Z,18.40
2023-01-10T16:34:16.667Z,14.75
2023-01-10T16:36:43.731Z,18.15
2023-01-10T16:39:19.888Z,22.02
2023-01-10T16:42:05.688Z,15.15
2023-01-10T16:44:33.366Z,17.52
2023-01-10T16:47:00.355Z,13.75
2023-01-10T16:49:26.923Z,14.90
2023-01-10T16:51:53.918Z,17.17
2023-01-10T16:54:22.208Z,18.67
2023-01-10T16:56:49.182Z,11.55
2023-01-10T16:59:17.931Z,14.93
2023-01-10T17:01:52.387Z,18.10
2023-01-10T17:04:24.778Z,17.92
2023-01-10T17:06:51.327Z,17.27
2023-01-10T17:09:29.169Z,17.70
2023-01-10T17:12:02.047Z,10.68
2023-01-10T17:14:30.083Z,14.52
2023-01-10T17:16:56.842Z,17.48
2023-01-10T17:19:24.382Z,17.50
2023-01-10T17:21:50.795Z,19.48
2023-01-10T17:24:17.802Z,15.50
2023-01-10T17:26:44.279Z,17.08
2023-01-10T17:29:10.813Z,19.60
2023-01-10T17:31:37.296Z,13.07
2023-01-10T17:34:03.921Z,14.65
2023-01-10T17:36:32.448Z,15.38
2023-01-10T17:38:59.630Z,15.82
2023-01-10T17:41:26.031Z,13.15
2023-01-10T17:43:52.401Z,15.27
2023-01-10T17:46:18.944Z,17.08
2023-01-10T17:48:45.329Z,13.90
2023-01-10T17:51:13.111Z,11.18
2023-01-10T17:53:40.299Z,11.98
2023-01-10T17:56:07.288Z,16.23
2023-01-10T17:58:34.310Z,13.18
2023-01-10T18:01:00.805Z,12.88
2023-01-10T18:03:27.639Z,16.02
2023-01-10T18:05:56.520Z,17.25
2023-01-10T18:08:23.518Z,10.40
2023-01-10T18:10:50.065Z,17.00
2023-01-10T18:13:18.172Z,13.00
2023-01-10T18:15:47.324Z,15.90
2023-01-10T18:18:14.025Z,13.82
2023-01-10T18:20:44.407Z,10.85
2023-01-10T18:23:21.419Z,12.02
2023-01-10T18:25:56.279Z,20.67
2023-01-10T18:28:40.426Z,18.42
2023-01-10T18:31:12.975Z,15.70
2023-01-10T18:33:39.666Z,14.77
2023-01-10T18:36:08.000Z,12.90
2023-01-10T18:38:35.803Z,18.50
2023-01-10T18:41:02.599Z,13.00
2023-01-10T18:43:29.901Z,14.07
2023-01-10T18:46:05.074Z,13.07
2023-01-10T18:48:31.864Z,18.65
2023-01-10T18:50:59.234Z,13.63
2023-01-10T18:53:25.734Z,16.10
2023-01-10T18:55:56.127Z,19.20
2023-01-10T18:58:27.425Z,16.92
2023-01-10T19:00:53.991Z,11.88
2023-01-10T19:03:20.562Z,14.20
2023-01-10T19:05:46.945Z,16.15
2023-01-10T19:08:16.258Z,12.35
2023-01-10T19:11:07.086Z,14.60
2023-01-10T19:13:30.175Z,20.73
2023-01-10T19:16:15.582Z,16.92
2023-01-10T19:18:42.519Z,16.23
2023-01-10T19:21:14.979Z,12.68
2023-01-10T19:26:12.069Z,21.75
2023-01-10T19:28:38.590Z,15.98
2023-01-10T19:31:05.540Z,15.80
2023-01-10T19:33:37.525Z,16.30
2023-01-10T19:36:06.169Z,19.85
2023-01-10T19:38:32.584Z,16.25
2023-01-10T19:40:59.276Z,18.02
2023-01-10T19:43:25.893Z,13.90
2023-01-10T19:45:53.287Z,18.35
2023-01-10T19:48:19.770Z,18.80
2023-01-10T19:50:46.525Z,16.63
2023-01-10T19:53:12.931Z,15.98
2023-01-10T19:55:39.325Z,20.20
2023-01-10T19:58:05.855Z,21.48
2023-01-10T20:00:32.359Z,18.80
2023-01-10T20:03:00.070Z,14.60
2023-01-10T20:05:26.610Z,22.65
2023-01-10T20:07:53.178Z,15.70
2023-01-10T20:10:19.601Z,20.38
2023-01-10T20:12:46.088Z,18.80
2023-01-10T20:15:12.602Z,19.27
2023-01-10T20:17:40.416Z,22.67
2023-01-10T20:20:07.089Z,18.85
2023-01-10T20:22:33.465Z,15.60
2023-01-10T20:25:00.684Z,16.85
2023-01-10T20:27:28.091Z,17.95
2023-01-10T20:29:54.463Z,22.98
2023-01-10T20:32:21.986Z,17.33
2023-01-10T20:34:49.621Z,17.95
2023-01-10T20:37:16.072Z,19.25
2023-01-10T20:39:42.493Z,15.88
2023-01-10T20:42:08.881Z,18.75
2023-01-10T20:44:35.267Z,16.20
2023-01-10T20:47:01.678Z,16.25
2023-01-10T20:49:28.136Z,12.77
2023-01-10T20:51:54.586Z,12.98
2023-01-10T20:54:20.971Z,15.10
2023-01-10T20:56:47.532Z,17.20
2023-01-10T20:59:13.964Z,13.52
2023-01-10T21:01:40.427Z,16.40
2023-01-10T21:04:07.418Z,13.70
2023-01-10T21:06:34.845Z,10.60
2023-01-10T21:09:01.495Z,15.10
2023-01-10T21:11:27.900Z,12.82
2023-01-10T21:13:54.324Z,9.75
2023-01-10T21:16:21.991Z,11.43
2023-01-10T21:18:48.709Z,11.52
2023-01-10T21:21:17.275Z,15.43
2023-01-10T21:23:44.013Z,11.88
2023-01-10T21:26:12.659Z,14.15
2023-01-10T21:28:46.367Z,11.60
2023-01-10T21:31:18.516Z,13.52
2023-01-10T21:33:45.288Z,11.10
2023-01-10T21:36:13.379Z,11.15
2023-01-10T21:38:40.848Z,12.55
2023-01-10T21:41:11.234Z,10.88
2023-01-10T21:43:37.714Z,12.13
2023-01-10T21:46:04.568Z,9.35
2023-01-10T21:48:31.073Z,5.80
2023-01-10T21:50:58.080Z,9.88
2023-01-10T21:53:24.664Z,8.93
2023-01-10T21:55:51.043Z,9.25
2023-01-10T21:58:17.423Z,5.55
2023-01-10T22:00:43.922Z,6.43
2023-01-10T22:03:10.377Z,7.18
2023-01-10T22:05:36.768Z,6.88
2023-01-10T22:08:03.232Z,7.30
2023-01-10T22:10:30.203Z,6.25
2023-01-10T22:12:56.568Z,4.97
2023-01-10T22:15:22.997Z,6.82
2023-01-10T22:17:49.375Z,4.50
2023-01-10T22:20:16.894Z,3.20
2023-01-10T22:22:43.430Z,3.53
2023-01-10T22:25:09.987Z,3.13
2023-01-10T22:27:36.448Z,4.43
2023-01-10T22:30:02.883Z,4.47
2023-01-10T22:32:29.370Z,6.22
2023-01-10T22:34:55.780Z,6.07
2023-01-10T22:37:22.143Z,3.80
2023-01-10T22:39:48.772Z,4.35
2023-01-10T22:42:15.221Z,3.33
2023-01-10T22:44:41.656Z,3.50
2023-01-10T22:47:08.627Z,2.75
2023-01-10T22:49:35.034Z,3.05
2023-01-10T22:52:01.395Z,4.25
2023-01-10T22:54:27.890Z,2.58
2023-01-10T22:56:54.267Z,3.03
2023-01-10T22:59:20.661Z,4.07
2023-01-10T23:01:47.073Z,3.58
2023-01-10T23:04:13.509Z,2.65
2023-01-10T23:06:39.981Z,4.47
2023-01-10T23:09:06.386Z,3.40
2023-01-10T23:11:32.767Z,2.85
2023-01-10T23:13:59.121Z,3.03
2023-01-10T23:16:32.572Z,2.47
2023-01-10T23:18:59.988Z,2.10
2023-01-10T23:21:28.710Z,4.35
2023-01-10T23:23:55.770Z,2.70
2023-01-10T23:26:22.327Z,3.10
2023-01-10T23:28:49.992Z,3.22
2023-01-10T23:31:19.274Z,2.90
2023-01-10T23:33:46.084Z,2.65
2023-01-10T23:36:12.875Z,2.92
2023-01-10T23:38:39.371Z,1.42
2023-01-10T23:41:06.332Z,2.00
2023-01-10T23:43:32.766Z,2.88
2023-01-10T23:45:59.324Z,1.80
2023-01-10T23:48:25.844Z,2.78
2023-01-10T23:50:52.328Z,2.38
2023-01-10T23:53:19.406Z,2.08
2023-01-10T23:55:46.311Z,2.95
2023-01-10T23:58:12.871Z,4.60
